sensor_id;sensor_type;location;lat;lon;timestamp;P1;durP1;ratioP1;P2;durP2;ratioP2
49422;SDS011;36998;51.974;20.150;2022-11-13T00:00:54;108.05;;;42.50;;
49422;SDS011;36998;51.974;20.150;2022-11-13T00:03:39;113.43;;;46.03;;
49422;SDS011;36998;51.974;20.150;2022-11-13T00:06:23;112.60;;;43.63;;
49422;SDS011;36998;51.974;20.150;2022-11-13T00:09:11;107.10;;;41.88;;
49422;SDS011;36998;51.974;20.150;2022-11-13T00:11:55;104.65;;;43.50;;
49422;SDS011;36998;51.974;20.150;2022-11-13T00:14:39;104.05;;;42.13;;
49422;SDS011;36998;51.974;20.150;2022-11-13T00:17:24;109.88;;;42.72;;
49422;SDS011;36998;51.974;20.150;2022-11-13T00:20:08;114.72;;;43.42;;
49422;SDS011;36998;51.974;20.150;2022-11-13T00:22:52;117.75;;;41.53;;
49422;SDS011;36998;51.974;20.150;2022-11-13T00:25:37;121.10;;;45.03;;
49422;SDS011;36998;51.974;20.150;2022-11-13T00:28:21;121.93;;;46.05;;
49422;SDS011;36998;51.974;20.150;2022-11-13T00:31:05;116.93;;;43.70;;
49422;SDS011;36998;51.974;20.150;2022-11-13T00:33:50;124.75;;;45.72;;
49422;SDS011;36998;51.974;20.150;2022-11-13T00:36:35;128.10;;;44.65;;
49422;SDS011;36998;51.974;20.150;2022-11-13T00:39:20;119.70;;;44.95;;
49422;SDS011;36998;51.974;20.150;2022-11-13T00:42:04;116.13;;;44.28;;
49422;SDS011;36998;51.974;20.150;2022-11-13T00:44:48;133.10;;;46.78;;
49422;SDS011;36998;51.974;20.150;2022-11-13T00:47:32;108.57;;;42.75;;
49422;SDS011;36998;51.974;20.150;2022-11-13T00:50:16;117.43;;;43.55;;
49422;SDS011;36998;51.974;20.150;2022-11-13T00:53:00;121.13;;;43.67;;
49422;SDS011;36998;51.974;20.150;2022-11-13T00:55:44;118.60;;;42.83;;
49422;SDS011;36998;51.974;20.150;2022-11-13T00:58:28;134.57;;;47.45;;
49422;SDS011;36998;51.974;20.150;2022-11-13T01:01:13;123.10;;;44.35;;
49422;SDS011;36998;51.974;20.150;2022-11-13T01:04:00;128.15;;;45.05;;
49422;SDS011;36998;51.974;20.150;2022-11-13T01:06:44;135.23;;;47.97;;
49422;SDS011;36998;51.974;20.150;2022-11-13T01:09:29;133.05;;;46.10;;
49422;SDS011;36998;51.974;20.150;2022-11-13T01:12:13;129.45;;;44.97;;
49422;SDS011;36998;51.974;20.150;2022-11-13T01:14:57;132.57;;;45.53;;
49422;SDS011;36998;51.974;20.150;2022-11-13T01:17:41;124.63;;;46.03;;
49422;SDS011;36998;51.974;20.150;2022-11-13T01:20:25;122.95;;;45.63;;
49422;SDS011;36998;51.974;20.150;2022-11-13T01:23:09;139.23;;;49.70;;
49422;SDS011;36998;51.974;20.150;2022-11-13T01:25:54;126.28;;;47.45;;
49422;SDS011;36998;51.974;20.150;2022-11-13T01:28:39;125.38;;;46.45;;
49422;SDS011;36998;51.974;20.150;2022-11-13T01:31:26;120.20;;;44.58;;
49422;SDS011;36998;51.974;20.150;2022-11-13T01:34:12;125.05;;;45.72;;
49422;SDS011;36998;51.974;20.150;2022-11-13T01:36:56;123.25;;;43.83;;
49422;SDS011;36998;51.974;20.150;2022-11-13T01:39:40;126.30;;;46.60;;
49422;SDS011;36998;51.974;20.150;2022-11-13T01:42:25;116.00;;;43.72;;
49422;SDS011;36998;51.974;20.150;2022-11-13T01:48:38;109.68;;;44.08;;
49422;SDS011;36998;51.974;20.150;2022-11-13T01:51:25;107.30;;;44.05;;
49422;SDS011;36998;51.974;20.150;2022-11-13T01:54:14;119.03;;;43.80;;
49422;SDS011;36998;51.974;20.150;2022-11-13T01:57:02;120.20;;;45.80;;
49422;SDS011;36998;51.974;20.150;2022-11-13T01:59:49;132.75;;;46.78;;
49422;SDS011;36998;51.974;20.150;2022-11-13T02:02:37;128.68;;;46.35;;
49422;SDS011;36998;51.974;20.150;2022-11-13T02:05:21;127.28;;;46.40;;
49422;SDS011;36998;51.974;20.150;2022-11-13T02:08:04;124.88;;;45.30;;
49422;SDS011;36998;51.974;20.150;2022-11-13T02:10:49;132.55;;;46.95;;
49422;SDS011;36998;51.974;20.150;2022-11-13T02:13:33;129.73;;;46.60;;
49422;SDS011;36998;51.974;20.150;2022-11-13T02:16:18;113.75;;;46.13;;
49422;SDS011;36998;51.974;20.150;2022-11-13T02:19:05;127.05;;;45.13;;
49422;SDS011;36998;51.974;20.150;2022-11-13T02:25:03;107.03;;;43.20;;
49422;SDS011;36998;51.974;20.150;2022-11-13T02:27:48;120.93;;;43.58;;
49422;SDS011;36998;51.974;20.150;2022-11-13T02:30:33;108.60;;;41.17;;
49422;SDS011;36998;51.974;20.150;2022-11-13T02:33:20;117.18;;;43.05;;
49422;SDS011;36998;51.974;20.150;2022-11-13T02:36:06;103.50;;;40.92;;
49422;SDS011;36998;51.974;20.150;2022-11-13T02:38:52;104.55;;;40.92;;
49422;SDS011;36998;51.974;20.150;2022-11-13T02:41:38;109.10;;;42.28;;
49422;SDS011;36998;51.974;20.150;2022-11-13T02:44:22;98.45;;;39.80;;
49422;SDS011;36998;51.974;20.150;2022-11-13T02:47:06;106.90;;;40.05;;
49422;SDS011;36998;51.974;20.150;2022-11-13T02:49:50;109.38;;;39.75;;
49422;SDS011;36998;51.974;20.150;2022-11-13T02:52:35;103.55;;;39.22;;
49422;SDS011;36998;51.974;20.150;2022-11-13T02:55:19;93.90;;;38.28;;
49422;SDS011;36998;51.974;20.150;2022-11-13T02:58:03;101.07;;;38.78;;
49422;SDS011;36998;51.974;20.150;2022-11-13T03:00:48;112.72;;;40.00;;
49422;SDS011;36998;51.974;20.150;2022-11-13T03:03:32;101.05;;;38.65;;
49422;SDS011;36998;51.974;20.150;2022-11-13T03:06:17;108.20;;;39.17;;
49422;SDS011;36998;51.974;20.150;2022-11-13T03:09:01;95.68;;;37.47;;
49422;SDS011;36998;51.974;20.150;2022-11-13T03:11:45;99.70;;;38.28;;
49422;SDS011;36998;51.974;20.150;2022-11-13T03:14:30;95.80;;;38.92;;
49422;SDS011;36998;51.974;20.150;2022-11-13T03:17:14;104.93;;;37.83;;
49422;SDS011;36998;51.974;20.150;2022-11-13T03:19:58;110.70;;;39.15;;
49422;SDS011;36998;51.974;20.150;2022-11-13T03:22:43;97.32;;;37.38;;
49422;SDS011;36998;51.974;20.150;2022-11-13T03:25:27;95.78;;;37.85;;
49422;SDS011;36998;51.974;20.150;2022-11-13T03:28:11;105.95;;;38.03;;
49422;SDS011;36998;51.974;20.150;2022-11-13T03:30:54;104.50;;;38.00;;
49422;SDS011;36998;51.974;20.150;2022-11-13T03:33:39;106.47;;;36.88;;
49422;SDS011;36998;51.974;20.150;2022-11-13T03:36:23;104.50;;;38.05;;
49422;SDS011;36998;51.974;20.150;2022-11-13T03:39:07;94.85;;;36.38;;
49422;SDS011;36998;51.974;20.150;2022-11-13T03:41:52;109.40;;;38.88;;
49422;SDS011;36998;51.974;20.150;2022-11-13T03:44:35;104.30;;;37.70;;
49422;SDS011;36998;51.974;20.150;2022-11-13T03:47:20;107.30;;;38.72;;
49422;SDS011;36998;51.974;20.150;2022-11-13T03:50:04;99.53;;;36.15;;
49422;SDS011;36998;51.974;20.150;2022-11-13T03:52:48;100.82;;;37.50;;
49422;SDS011;36998;51.974;20.150;2022-11-13T03:55:32;104.82;;;38.58;;
49422;SDS011;36998;51.974;20.150;2022-11-13T03:58:17;108.80;;;39.22;;
49422;SDS011;36998;51.974;20.150;2022-11-13T04:01:01;108.95;;;40.28;;
49422;SDS011;36998;51.974;20.150;2022-11-13T04:03:45;107.97;;;39.33;;
49422;SDS011;36998;51.974;20.150;2022-11-13T04:06:30;106.00;;;39.53;;
49422;SDS011;36998;51.974;20.150;2022-11-13T04:09:14;118.90;;;39.28;;
49422;SDS011;36998;51.974;20.150;2022-11-13T04:11:58;109.05;;;38.47;;
49422;SDS011;36998;51.974;20.150;2022-11-13T04:14:43;112.32;;;40.15;;
49422;SDS011;36998;51.974;20.150;2022-11-13T04:17:27;108.15;;;40.55;;
49422;SDS011;36998;51.974;20.150;2022-11-13T04:20:11;104.35;;;37.42;;
49422;SDS011;36998;51.974;20.150;2022-11-13T04:22:55;101.85;;;40.03;;
49422;SDS011;36998;51.974;20.150;2022-11-13T04:25:39;110.18;;;41.85;;
49422;SDS011;36998;51.974;20.150;2022-11-13T04:28:24;101.63;;;38.53;;
49422;SDS011;36998;51.974;20.150;2022-11-13T04:31:08;107.05;;;40.22;;
49422;SDS011;36998;51.974;20.150;2022-11-13T04:33:51;111.95;;;42.00;;
49422;SDS011;36998;51.974;20.150;2022-11-13T04:36:36;113.72;;;39.92;;
49422;SDS011;36998;51.974;20.150;2022-11-13T04:39:20;117.18;;;41.50;;
49422;SDS011;36998;51.974;20.150;2022-11-13T04:42:03;113.80;;;40.95;;
49422;SDS011;36998;51.974;20.150;2022-11-13T04:45:07;112.65;;;40.95;;
49422;SDS011;36998;51.974;20.150;2022-11-13T04:47:51;116.10;;;40.55;;
49422;SDS011;36998;51.974;20.150;2022-11-13T04:50:35;112.53;;;38.90;;
49422;SDS011;36998;51.974;20.150;2022-11-13T04:53:18;129.98;;;41.25;;
49422;SDS011;36998;51.974;20.150;2022-11-13T04:56:03;120.07;;;39.88;;
49422;SDS011;36998;51.974;20.150;2022-11-13T04:58:47;115.65;;;41.70;;
49422;SDS011;36998;51.974;20.150;2022-11-13T05:01:31;119.57;;;41.63;;
49422;SDS011;36998;51.974;20.150;2022-11-13T05:04:15;112.25;;;39.55;;
49422;SDS011;36998;51.974;20.150;2022-11-13T05:06:59;115.07;;;40.75;;
49422;SDS011;36998;51.974;20.150;2022-11-13T05:09:43;120.82;;;40.75;;
49422;SDS011;36998;51.974;20.150;2022-11-13T05:12:28;106.38;;;39.55;;
49422;SDS011;36998;51.974;20.150;2022-11-13T05:15:12;114.85;;;40.22;;
49422;SDS011;36998;51.974;20.150;2022-11-13T05:17:57;113.30;;;39.10;;
49422;SDS011;36998;51.974;20.150;2022-11-13T05:20:40;117.60;;;37.67;;
49422;SDS011;36998;51.974;20.150;2022-11-13T05:23:24;117.00;;;41.50;;
49422;SDS011;36998;51.974;20.150;2022-11-13T05:26:11;108.32;;;38.83;;
49422;SDS011;36998;51.974;20.150;2022-11-13T05:28:56;107.25;;;38.15;;
49422;SDS011;36998;51.974;20.150;2022-11-13T05:31:43;92.90;;;34.20;;
49422;SDS011;36998;51.974;20.150;2022-11-13T05:34:28;108.20;;;38.55;;
49422;SDS011;36998;51.974;20.150;2022-11-13T05:37:12;100.05;;;35.78;;
49422;SDS011;36998;51.974;20.150;2022-11-13T05:39:56;108.70;;;37.08;;
49422;SDS011;36998;51.974;20.150;2022-11-13T05:42:40;95.22;;;35.63;;
49422;SDS011;36998;51.974;20.150;2022-11-13T05:45:25;100.47;;;34.53;;
49422;SDS011;36998;51.974;20.150;2022-11-13T05:48:09;99.53;;;34.53;;
49422;SDS011;36998;51.974;20.150;2022-11-13T05:50:53;92.78;;;33.70;;
49422;SDS011;36998;51.974;20.150;2022-11-13T05:53:44;100.18;;;34.60;;
49422;SDS011;36998;51.974;20.150;2022-11-13T05:56:32;86.97;;;33.92;;
49422;SDS011;36998;51.974;20.150;2022-11-13T05:59:18;108.10;;;35.80;;
49422;SDS011;36998;51.974;20.150;2022-11-13T06:02:03;97.85;;;33.55;;
49422;SDS011;36998;51.974;20.150;2022-11-13T06:04:47;90.40;;;33.22;;
49422;SDS011;36998;51.974;20.150;2022-11-13T06:07:33;100.60;;;34.15;;
49422;SDS011;36998;51.974;20.150;2022-11-13T06:10:17;101.22;;;36.78;;
49422;SDS011;36998;51.974;20.150;2022-11-13T06:13:01;96.05;;;34.85;;
49422;SDS011;36998;51.974;20.150;2022-11-13T06:15:46;98.78;;;35.35;;
49422;SDS011;36998;51.974;20.150;2022-11-13T06:18:30;94.10;;;32.13;;
49422;SDS011;36998;51.974;20.150;2022-11-13T06:21:16;89.32;;;31.33;;
49422;SDS011;36998;51.974;20.150;2022-11-13T06:24:02;91.30;;;32.85;;
49422;SDS011;36998;51.974;20.150;2022-11-13T06:26:46;90.63;;;33.38;;
49422;SDS011;36998;51.974;20.150;2022-11-13T06:29:30;95.43;;;32.45;;
49422;SDS011;36998;51.974;20.150;2022-11-13T06:32:15;88.55;;;29.95;;
49422;SDS011;36998;51.974;20.150;2022-11-13T06:34:59;82.22;;;30.73;;
49422;SDS011;36998;51.974;20.150;2022-11-13T06:37:43;88.03;;;30.42;;
49422;SDS011;36998;51.974;20.150;2022-11-13T06:40:26;72.10;;;27.67;;
49422;SDS011;36998;51.974;20.150;2022-11-13T06:43:11;71.32;;;28.08;;
49422;SDS011;36998;51.974;20.150;2022-11-13T06:45:55;65.45;;;27.33;;
49422;SDS011;36998;51.974;20.150;2022-11-13T06:48:40;69.95;;;27.25;;
49422;SDS011;36998;51.974;20.150;2022-11-13T06:51:25;69.00;;;27.35;;
49422;SDS011;36998;51.974;20.150;2022-11-13T06:54:11;75.38;;;30.75;;
49422;SDS011;36998;51.974;20.150;2022-11-13T06:56:55;85.80;;;30.98;;
49422;SDS011;36998;51.974;20.150;2022-11-13T06:59:39;73.57;;;29.27;;
49422;SDS011;36998;51.974;20.150;2022-11-13T07:02:23;79.43;;;29.55;;
49422;SDS011;36998;51.974;20.150;2022-11-13T07:05:07;70.53;;;29.33;;
49422;SDS011;36998;51.974;20.150;2022-11-13T07:07:51;65.25;;;28.85;;
49422;SDS011;36998;51.974;20.150;2022-11-13T07:10:35;66.78;;;28.23;;
49422;SDS011;36998;51.974;20.150;2022-11-13T07:13:20;67.55;;;26.75;;
49422;SDS011;36998;51.974;20.150;2022-11-13T07:16:05;67.68;;;27.00;;
49422;SDS011;36998;51.974;20.150;2022-11-13T07:18:51;72.88;;;26.17;;
49422;SDS011;36998;51.974;20.150;2022-11-13T07:21:36;60.35;;;26.52;;
49422;SDS011;36998;51.974;20.150;2022-11-13T07:24:20;61.25;;;26.73;;
49422;SDS011;36998;51.974;20.150;2022-11-13T07:27:04;57.70;;;24.70;;
49422;SDS011;36998;51.974;20.150;2022-11-13T07:29:49;59.08;;;23.33;;
49422;SDS011;36998;51.974;20.150;2022-11-13T07:32:33;60.13;;;24.77;;
49422;SDS011;36998;51.974;20.150;2022-11-13T07:35:18;47.45;;;21.45;;
49422;SDS011;36998;51.974;20.150;2022-11-13T07:38:02;52.88;;;21.48;;
49422;SDS011;36998;51.974;20.150;2022-11-13T07:40:46;52.80;;;20.92;;
49422;SDS011;36998;51.974;20.150;2022-11-13T07:43:31;49.55;;;21.48;;
49422;SDS011;36998;51.974;20.150;2022-11-13T07:46:15;49.08;;;20.85;;
49422;SDS011;36998;51.974;20.150;2022-11-13T07:49:00;44.63;;;19.73;;
49422;SDS011;36998;51.974;20.150;2022-11-13T07:51:44;46.58;;;20.25;;
49422;SDS011;36998;51.974;20.150;2022-11-13T07:54:28;42.95;;;18.75;;
49422;SDS011;36998;51.974;20.150;2022-11-13T07:57:12;42.08;;;17.52;;
49422;SDS011;36998;51.974;20.150;2022-11-13T07:59:56;40.38;;;16.92;;
49422;SDS011;36998;51.974;20.150;2022-11-13T08:02:42;37.97;;;16.60;;
49422;SDS011;36998;51.974;20.150;2022-11-13T08:05:26;39.40;;;15.43;;
49422;SDS011;36998;51.974;20.150;2022-11-13T08:08:10;34.13;;;15.65;;
49422;SDS011;36998;51.974;20.150;2022-11-13T08:10:56;39.75;;;17.60;;
49422;SDS011;36998;51.974;20.150;2022-11-13T08:13:40;42.00;;;17.50;;
49422;SDS011;36998;51.974;20.150;2022-11-13T08:16:25;43.30;;;18.33;;
49422;SDS011;36998;51.974;20.150;2022-11-13T08:19:10;42.92;;;18.02;;
49422;SDS011;36998;51.974;20.150;2022-11-13T08:21:54;41.17;;;16.75;;
49422;SDS011;36998;51.974;20.150;2022-11-13T08:24:38;48.03;;;17.92;;
49422;SDS011;36998;51.974;20.150;2022-11-13T08:27:22;40.33;;;16.95;;
49422;SDS011;36998;51.974;20.150;2022-11-13T08:30:07;34.05;;;14.23;;
49422;SDS011;36998;51.974;20.150;2022-11-13T08:32:51;33.63;;;15.00;;
49422;SDS011;36998;51.974;20.150;2022-11-13T08:35:36;35.65;;;14.48;;
49422;SDS011;36998;51.974;20.150;2022-11-13T08:38:20;29.05;;;12.88;;
49422;SDS011;36998;51.974;20.150;2022-11-13T08:41:04;31.40;;;13.68;;
49422;SDS011;36998;51.974;20.150;2022-11-13T08:43:49;24.98;;;11.38;;
49422;SDS011;36998;51.974;20.150;2022-11-13T08:46:33;27.63;;;12.10;;
49422;SDS011;36998;51.974;20.150;2022-11-13T08:49:17;28.73;;;12.48;;
49422;SDS011;36998;51.974;20.150;2022-11-13T08:52:01;35.47;;;14.00;;
49422;SDS011;36998;51.974;20.150;2022-11-13T08:54:45;33.85;;;13.95;;
49422;SDS011;36998;51.974;20.150;2022-11-13T08:57:30;34.17;;;14.25;;
49422;SDS011;36998;51.974;20.150;2022-11-13T09:00:14;33.45;;;13.18;;
49422;SDS011;36998;51.974;20.150;2022-11-13T09:02:59;20.40;;;9.85;;
49422;SDS011;36998;51.974;20.150;2022-11-13T09:05:44;21.42;;;10.13;;
49422;SDS011;36998;51.974;20.150;2022-11-13T09:08:29;21.58;;;9.27;;
49422;SDS011;36998;51.974;20.150;2022-11-13T09:11:13;23.55;;;10.40;;
49422;SDS011;36998;51.974;20.150;2022-11-13T09:13:58;27.20;;;12.13;;
49422;SDS011;36998;51.974;20.150;2022-11-13T09:16:44;31.15;;;14.10;;
49422;SDS011;36998;51.974;20.150;2022-11-13T09:19:27;30.33;;;12.73;;
49422;SDS011;36998;51.974;20.150;2022-11-13T09:22:12;30.23;;;13.63;;
49422;SDS011;36998;51.974;20.150;2022-11-13T09:24:55;33.58;;;13.10;;
49422;SDS011;36998;51.974;20.150;2022-11-13T09:27:39;31.27;;;13.98;;
49422;SDS011;36998;51.974;20.150;2022-11-13T09:30:23;25.73;;;12.52;;
49422;SDS011;36998;51.974;20.150;2022-11-13T09:33:08;27.13;;;12.38;;
49422;SDS011;36998;51.974;20.150;2022-11-13T09:35:53;27.52;;;12.27;;
49422;SDS011;36998;51.974;20.150;2022-11-13T09:38:37;29.58;;;12.45;;
49422;SDS011;36998;51.974;20.150;2022-11-13T09:41:23;25.08;;;10.95;;
49422;SDS011;36998;51.974;20.150;2022-11-13T09:44:12;22.92;;;9.80;;
49422;SDS011;36998;51.974;20.150;2022-11-13T09:47:09;19.88;;;9.65;;
49422;SDS011;36998;51.974;20.150;2022-11-13T09:50:16;22.10;;;10.38;;
49422;SDS011;36998;51.974;20.150;2022-11-13T09:53:03;22.05;;;10.25;;
49422;SDS011;36998;51.974;20.150;2022-11-13T09:55:51;41.75;;;14.88;;
49422;SDS011;36998;51.974;20.150;2022-11-13T10:01:48;28.63;;;12.15;;
49422;SDS011;36998;51.974;20.150;2022-11-13T10:04:37;21.10;;;10.43;;
49422;SDS011;36998;51.974;20.150;2022-11-13T10:13:37;22.90;;;10.32;;
49422;SDS011;36998;51.974;20.150;2022-11-13T10:16:35;18.48;;;9.13;;
49422;SDS011;36998;51.974;20.150;2022-11-13T10:22:27;23.92;;;11.73;;
49422;SDS011;36998;51.974;20.150;2022-11-13T10:25:22;19.20;;;9.27;;
49422;SDS011;36998;51.974;20.150;2022-11-13T10:28:20;23.70;;;10.57;;
49422;SDS011;36998;51.974;20.150;2022-11-13T10:31:14;19.98;;;9.88;;
49422;SDS011;36998;51.974;20.150;2022-11-13T10:33:58;18.40;;;9.15;;
49422;SDS011;36998;51.974;20.150;2022-11-13T10:36:53;23.50;;;10.13;;
49422;SDS011;36998;51.974;20.150;2022-11-13T10:39:45;21.02;;;10.20;;
49422;SDS011;36998;51.974;20.150;2022-11-13T10:42:40;23.20;;;10.52;;
49422;SDS011;36998;51.974;20.150;2022-11-13T10:45:24;25.65;;;11.70;;
49422;SDS011;36998;51.974;20.150;2022-11-13T10:48:22;22.92;;;10.98;;
49422;SDS011;36998;51.974;20.150;2022-11-13T11:00:20;15.27;;;7.57;;
49422;SDS011;36998;51.974;20.150;2022-11-13T11:03:13;15.57;;;8.35;;
49422;SDS011;36998;51.974;20.150;2022-11-13T11:06:02;22.38;;;10.45;;
49422;SDS011;36998;51.974;20.150;2022-11-13T11:08:47;22.85;;;10.52;;
49422;SDS011;36998;51.974;20.150;2022-11-13T11:11:31;23.05;;;10.32;;
49422;SDS011;36998;51.974;20.150;2022-11-13T11:14:39;21.98;;;9.77;;
49422;SDS011;36998;51.974;20.150;2022-11-13T11:20:36;18.00;;;9.05;;
49422;SDS011;36998;51.974;20.150;2022-11-13T11:23:36;26.05;;;12.57;;
49422;SDS011;36998;51.974;20.150;2022-11-13T11:26:36;25.15;;;13.18;;
49422;SDS011;36998;51.974;20.150;2022-11-13T11:29:36;23.48;;;12.27;;
49422;SDS011;36998;51.974;20.150;2022-11-13T11:35:41;28.80;;;13.83;;
49422;SDS011;36998;51.974;20.150;2022-11-13T11:38:31;34.97;;;15.82;;
49422;SDS011;36998;51.974;20.150;2022-11-13T11:41:21;32.90;;;15.27;;
49422;SDS011;36998;51.974;20.150;2022-11-13T11:44:21;22.70;;;9.52;;
49422;SDS011;36998;51.974;20.150;2022-11-13T11:47:13;22.35;;;11.50;;
49422;SDS011;36998;51.974;20.150;2022-11-13T11:49:59;31.02;;;13.57;;
49422;SDS011;36998;51.974;20.150;2022-11-13T11:53:04;32.75;;;15.98;;
49422;SDS011;36998;51.974;20.150;2022-11-13T11:56:11;32.70;;;12.60;;
49422;SDS011;36998;51.974;20.150;2022-11-13T11:59:07;31.38;;;15.45;;
49422;SDS011;36998;51.974;20.150;2022-11-13T12:02:24;57.55;;;31.83;;
49422;SDS011;36998;51.974;20.150;2022-11-13T12:05:22;57.78;;;33.65;;
49422;SDS011;36998;51.974;20.150;2022-11-13T12:08:16;37.50;;;21.20;;
49422;SDS011;36998;51.974;20.150;2022-11-13T12:11:26;22.05;;;10.15;;
49422;SDS011;36998;51.974;20.150;2022-11-13T12:14:31;26.60;;;10.73;;
49422;SDS011;36998;51.974;20.150;2022-11-13T12:17:31;25.83;;;10.48;;
49422;SDS011;36998;51.974;20.150;2022-11-13T12:20:27;27.05;;;11.18;;
49422;SDS011;36998;51.974;20.150;2022-11-13T12:23:31;29.13;;;12.32;;
49422;SDS011;36998;51.974;20.150;2022-11-13T12:29:34;39.22;;;20.73;;
49422;SDS011;36998;51.974;20.150;2022-11-13T12:35:24;22.77;;;9.73;;
49422;SDS011;36998;51.974;20.150;2022-11-13T12:48:21;22.25;;;11.48;;
49422;SDS011;36998;51.974;20.150;2022-11-13T12:51:14;24.02;;;10.13;;
49422;SDS011;36998;51.974;20.150;2022-11-13T12:54:00;24.08;;;10.93;;
49422;SDS011;36998;51.974;20.150;2022-11-13T12:56:44;27.75;;;12.57;;
49422;SDS011;36998;51.974;20.150;2022-11-13T12:59:33;30.52;;;11.77;;
49422;SDS011;36998;51.974;20.150;2022-11-13T13:14:54;29.95;;;11.90;;
49422;SDS011;36998;51.974;20.150;2022-11-13T13:17:43;28.55;;;11.90;;
49422;SDS011;36998;51.974;20.150;2022-11-13T13:20:37;32.35;;;13.45;;
49422;SDS011;36998;51.974;20.150;2022-11-13T13:23:28;22.48;;;11.13;;
49422;SDS011;36998;51.974;20.150;2022-11-13T13:29:18;29.77;;;11.48;;
49422;SDS011;36998;51.974;20.150;2022-11-13T13:32:15;28.85;;;11.77;;
49422;SDS011;36998;51.974;20.150;2022-11-13T13:35:16;32.88;;;12.23;;
49422;SDS011;36998;51.974;20.150;2022-11-13T13:38:15;24.70;;;10.45;;
49422;SDS011;36998;51.974;20.150;2022-11-13T13:47:31;25.10;;;11.55;;
49422;SDS011;36998;51.974;20.150;2022-11-13T13:50:19;31.50;;;12.48;;
49422;SDS011;36998;51.974;20.150;2022-11-13T13:53:05;39.35;;;14.43;;
49422;SDS011;36998;51.974;20.150;2022-11-13T13:55:52;35.55;;;12.82;;
49422;SDS011;36998;51.974;20.150;2022-11-13T13:58:38;33.50;;;13.68;;
49422;SDS011;36998;51.974;20.150;2022-11-13T14:01:33;36.33;;;14.70;;
49422;SDS011;36998;51.974;20.150;2022-11-13T14:04:18;23.75;;;12.35;;
49422;SDS011;36998;51.974;20.150;2022-11-13T14:07:04;30.38;;;12.93;;
49422;SDS011;36998;51.974;20.150;2022-11-13T14:10:17;33.25;;;13.77;;
49422;SDS011;36998;51.974;20.150;2022-11-13T14:13:03;30.58;;;12.23;;
49422;SDS011;36998;51.974;20.150;2022-11-13T14:15:47;32.03;;;11.27;;
49422;SDS011;36998;51.974;20.150;2022-11-13T14:18:31;33.30;;;13.35;;
49422;SDS011;36998;51.974;20.150;2022-11-13T14:21:18;31.48;;;14.52;;
49422;SDS011;36998;51.974;20.150;2022-11-13T14:24:08;33.83;;;13.30;;
49422;SDS011;36998;51.974;20.150;2022-11-13T14:26:58;27.30;;;11.55;;
49422;SDS011;36998;51.974;20.150;2022-11-13T14:29:46;28.30;;;11.25;;
49422;SDS011;36998;51.974;20.150;2022-11-13T14:32:32;24.70;;;10.00;;
49422;SDS011;36998;51.974;20.150;2022-11-13T14:35:22;22.25;;;10.60;;
49422;SDS011;36998;51.974;20.150;2022-11-13T14:38:17;71.68;;;35.75;;
49422;SDS011;36998;51.974;20.150;2022-11-13T14:41:03;22.90;;;10.32;;
49422;SDS011;36998;51.974;20.150;2022-11-13T14:43:48;36.17;;;15.63;;
49422;SDS011;36998;51.974;20.150;2022-11-13T14:46:38;29.88;;;12.98;;
49422;SDS011;36998;51.974;20.150;2022-11-13T14:49:29;28.88;;;12.15;;
49422;SDS011;36998;51.974;20.150;2022-11-13T14:52:19;26.70;;;11.57;;
49422;SDS011;36998;51.974;20.150;2022-11-13T14:55:05;27.10;;;11.85;;
49422;SDS011;36998;51.974;20.150;2022-11-13T14:57:50;29.83;;;12.95;;
49422;SDS011;36998;51.974;20.150;2022-11-13T15:00:35;85.70;;;41.28;;
49422;SDS011;36998;51.974;20.150;2022-11-13T15:03:20;40.70;;;20.20;;
49422;SDS011;36998;51.974;20.150;2022-11-13T15:06:07;32.05;;;14.70;;
49422;SDS011;36998;51.974;20.150;2022-11-13T15:08:56;28.95;;;13.65;;
49422;SDS011;36998;51.974;20.150;2022-11-13T15:11:41;27.60;;;14.15;;
49422;SDS011;36998;51.974;20.150;2022-11-13T15:14:25;28.02;;;12.30;;
49422;SDS011;36998;51.974;20.150;2022-11-13T15:17:12;26.17;;;12.45;;
49422;SDS011;36998;51.974;20.150;2022-11-13T15:19:59;32.25;;;14.38;;
49422;SDS011;36998;51.974;20.150;2022-11-13T15:22:43;42.33;;;21.58;;
49422;SDS011;36998;51.974;20.150;2022-11-13T15:25:27;35.10;;;18.25;;
49422;SDS011;36998;51.974;20.150;2022-11-13T15:28:12;24.70;;;13.25;;
49422;SDS011;36998;51.974;20.150;2022-11-13T15:30:56;24.88;;;12.13;;
49422;SDS011;36998;51.974;20.150;2022-11-13T15:33:40;23.77;;;11.55;;
49422;SDS011;36998;51.974;20.150;2022-11-13T15:36:24;30.80;;;17.27;;
49422;SDS011;36998;51.974;20.150;2022-11-13T15:39:09;35.67;;;16.23;;
49422;SDS011;36998;51.974;20.150;2022-11-13T15:41:53;40.53;;;23.80;;
49422;SDS011;36998;51.974;20.150;2022-11-13T15:44:38;57.97;;;30.65;;
49422;SDS011;36998;51.974;20.150;2022-11-13T15:47:24;41.15;;;22.88;;
49422;SDS011;36998;51.974;20.150;2022-11-13T15:50:13;39.85;;;17.33;;
49422;SDS011;36998;51.974;20.150;2022-11-13T15:52:58;56.03;;;29.35;;
49422;SDS011;36998;51.974;20.150;2022-11-13T15:55:43;29.50;;;16.63;;
49422;SDS011;36998;51.974;20.150;2022-11-13T15:58:27;29.85;;;14.75;;
49422;SDS011;36998;51.974;20.150;2022-11-13T16:01:11;18.17;;;9.10;;
49422;SDS011;36998;51.974;20.150;2022-11-13T16:03:57;21.35;;;9.98;;
49422;SDS011;36998;51.974;20.150;2022-11-13T16:06:44;28.33;;;14.90;;
49422;SDS011;36998;51.974;20.150;2022-11-13T16:09:29;21.08;;;8.90;;
49422;SDS011;36998;51.974;20.150;2022-11-13T16:12:13;19.52;;;10.23;;
49422;SDS011;36998;51.974;20.150;2022-11-13T16:14:58;13.65;;;9.13;;
49422;SDS011;36998;51.974;20.150;2022-11-13T16:17:44;68.10;;;32.38;;
49422;SDS011;36998;51.974;20.150;2022-11-13T16:20:31;29.20;;;16.00;;
49422;SDS011;36998;51.974;20.150;2022-11-13T16:23:15;26.58;;;14.90;;
49422;SDS011;36998;51.974;20.150;2022-11-13T16:26:00;24.33;;;10.70;;
49422;SDS011;36998;51.974;20.150;2022-11-13T16:28:47;20.33;;;9.60;;
49422;SDS011;36998;51.974;20.150;2022-11-13T16:31:32;14.45;;;7.93;;
49422;SDS011;36998;51.974;20.150;2022-11-13T16:34:16;36.17;;;18.30;;
49422;SDS011;36998;51.974;20.150;2022-11-13T16:37:00;20.02;;;11.50;;
49422;SDS011;36998;51.974;20.150;2022-11-13T16:39:44;29.27;;;18.20;;
49422;SDS011;36998;51.974;20.150;2022-11-13T16:42:29;18.88;;;10.52;;
49422;SDS011;36998;51.974;20.150;2022-11-13T16:45:14;18.15;;;10.23;;
49422;SDS011;36998;51.974;20.150;2022-11-13T16:47:58;34.05;;;20.05;;
49422;SDS011;36998;51.974;20.150;2022-11-13T16:50:42;23.30;;;13.13;;
49422;SDS011;36998;51.974;20.150;2022-11-13T16:53:27;20.98;;;11.15;;
49422;SDS011;36998;51.974;20.150;2022-11-13T16:56:12;31.52;;;17.98;;
49422;SDS011;36998;51.974;20.150;2022-11-13T16:58:58;19.83;;;11.05;;
49422;SDS011;36998;51.974;20.150;2022-11-13T17:01:42;21.60;;;11.60;;
49422;SDS011;36998;51.974;20.150;2022-11-13T17:04:27;20.98;;;10.60;;
49422;SDS011;36998;51.974;20.150;2022-11-13T17:07:11;39.50;;;23.52;;
49422;SDS011;36998;51.974;20.150;2022-11-13T17:09:56;17.60;;;9.50;;